createdAt,value
2023-05-24T00:02:49.893Z,28.45
2023-05-24T00:07:55.366Z,37.40
2023-05-24T00:12:59.002Z,39.15
2023-05-24T00:18:02.706Z,34.28
2023-05-24T00:23:08.102Z,31.83
2023-05-24T00:28:11.802Z,27.30
2023-05-24T00:33:15.471Z,26.67
2023-05-24T00:38:20.821Z,33.58
2023-05-24T00:43:24.805Z,31.77
2023-05-24T00:48:28.581Z,32.40
2023-05-24T00:53:36.241Z,28.27
2023-05-24T00:58:40.398Z,31.45
2023-05-24T01:03:44.292Z,29.67
2023-05-24T01:09:03.419Z,27.38
2023-05-24T01:14:19.313Z,29.63
2023-05-24T01:19:44.551Z,27.00
2023-05-24T01:25:01.671Z,25.13
2023-05-24T01:30:09.135Z,27.02
2023-05-24T01:35:12.961Z,25.17
2023-05-24T01:40:17.204Z,26.00
2023-05-24T01:45:31.254Z,32.15
2023-05-24T01:50:39.433Z,24.23
2023-05-24T01:55:44.987Z,26.17
2023-05-24T02:00:52.534Z,24.83
2023-05-24T02:05:56.226Z,30.23
2023-05-24T02:10:59.876Z,26.58
2023-05-24T02:16:05.585Z,34.25
2023-05-24T02:26:12.143Z,23.02
2023-05-24T02:31:17.478Z,27.63
2023-05-24T02:36:21.282Z,25.60
2023-05-24T02:41:24.936Z,26.60
2023-05-24T02:46:30.279Z,28.80
2023-05-24T02:51:33.943Z,29.50
2023-05-24T02:56:37.743Z,31.20
2023-05-24T03:01:43.068Z,26.25
2023-05-24T03:06:47.558Z,28.63
2023-05-24T03:11:51.220Z,28.13
2023-05-24T03:16:57.501Z,32.50
2023-05-24T03:22:01.196Z,25.63
2023-05-24T03:27:05.149Z,29.90
2023-05-24T03:32:10.500Z,28.95
2023-05-24T03:37:14.154Z,26.65
2023-05-24T03:42:17.857Z,28.50
2023-05-24T03:47:23.241Z,34.38
2023-05-24T03:52:27.072Z,29.30
2023-05-24T03:57:30.720Z,31.20
2023-05-24T04:02:36.061Z,32.13
2023-05-24T04:07:39.890Z,29.95
2023-05-24T04:12:43.567Z,26.75
2023-05-24T04:17:48.897Z,22.75
2023-05-24T04:22:52.646Z,22.58
2023-05-24T04:27:56.355Z,25.13
2023-05-24T04:33:01.814Z,23.77
2023-05-24T04:38:05.590Z,21.13
2023-05-24T04:43:09.699Z,23.77
2023-05-24T04:48:15.049Z,23.42
2023-05-24T04:53:18.752Z,27.02
2023-05-24T04:58:22.531Z,20.05
2023-05-24T05:03:27.987Z,21.30
2023-05-24T05:08:31.732Z,25.05
2023-05-24T05:13:35.378Z,24.77
2023-05-24T05:18:40.671Z,24.85
2023-05-24T05:23:44.337Z,17.87
2023-05-24T05:28:47.994Z,21.88
2023-05-24T05:33:53.732Z,23.02
2023-05-24T05:38:58.143Z,22.58
2023-05-24T05:44:01.838Z,18.67
2023-05-24T05:49:07.755Z,26.58
2023-05-24T05:59:15.223Z,23.75
2023-05-24T06:04:20.625Z,20.25
2023-05-24T06:09:24.387Z,21.55
2023-05-24T06:14:28.169Z,20.45
2023-05-24T06:19:33.479Z,21.25
2023-05-24T06:24:37.148Z,21.80
2023-05-24T06:29:40.830Z,21.95
2023-05-24T06:34:47.158Z,22.60
2023-05-24T06:39:50.812Z,21.52
2023-05-24T06:44:54.467Z,22.50
2023-05-24T06:49:59.765Z,22.52
2023-05-24T06:55:03.464Z,22.87
2023-05-24T07:00:08.615Z,24.80
2023-05-24T07:05:13.973Z,23.40
2023-05-24T07:10:17.742Z,20.07
2023-05-24T07:15:21.467Z,25.75
2023-05-24T07:20:27.017Z,24.08
2023-05-24T07:25:31.129Z,18.80
2023-05-24T07:30:34.978Z,25.42
2023-05-24T07:35:41.430Z,27.98
2023-05-24T07:41:03.750Z,23.58
2023-05-24T07:46:07.482Z,27.90
2023-05-24T07:51:11.142Z,25.25
2023-05-24T07:56:16.451Z,24.88
2023-05-24T08:01:20.139Z,19.73
2023-05-24T08:06:23.905Z,24.15
2023-05-24T08:11:29.256Z,27.10
2023-05-24T08:16:33.522Z,24.60
2023-05-24T08:21:37.210Z,21.83
2023-05-24T08:26:42.580Z,21.83
2023-05-24T08:31:46.270Z,21.90
2023-05-24T08:36:50.504Z,21.45
2023-05-24T08:42:08.526Z,22.90
2023-05-24T08:47:13.834Z,22.92
2023-05-24T08:52:18.804Z,22.98
2023-05-24T08:57:27.137Z,22.40
2023-05-24T09:02:32.416Z,22.45
2023-05-24T09:07:36.206Z,23.10
2023-05-24T09:12:45.307Z,30.98
2023-05-24T09:17:49.000Z,29.45
2023-05-24T09:22:53.482Z,18.05
2023-05-24T09:27:58.880Z,22.02
2023-05-24T09:33:02.834Z,28.87
2023-05-24T09:38:06.538Z,25.13
2023-05-24T09:43:12.297Z,30.02
2023-05-24T09:48:16.707Z,27.02
2023-05-24T09:53:23.044Z,29.05
2023-05-24T09:58:31.044Z,21.15
2023-05-24T10:03:35.533Z,23.85
2023-05-24T10:08:39.862Z,25.77
2023-05-24T10:13:45.646Z,26.05
2023-05-24T10:18:49.360Z,23.55
2023-05-24T10:23:55.789Z,29.92
2023-05-24T10:29:07.534Z,25.45
2023-05-24T10:34:11.926Z,25.75
2023-05-24T10:39:15.638Z,23.25
2023-05-24T10:44:21.625Z,25.92
2023-05-24T10:49:25.259Z,24.88
2023-05-24T10:54:28.955Z,32.42
2023-05-24T10:59:36.513Z,26.75
2023-05-24T11:04:41.299Z,25.35
2023-05-24T11:09:48.175Z,26.50
2023-05-24T11:14:54.695Z,30.15
2023-05-24T11:19:58.593Z,26.60
2023-05-24T11:25:03.036Z,36.40
2023-05-24T11:30:10.315Z,32.80
2023-05-24T11:35:14.012Z,25.88
2023-05-24T11:40:18.236Z,26.85
2023-05-24T11:45:23.724Z,25.77
2023-05-24T11:50:28.811Z,20.93
2023-05-24T11:55:33.336Z,27.88
2023-05-24T12:00:38.757Z,25.30
2023-05-24T12:05:42.443Z,22.23
2023-05-24T12:10:46.215Z,22.20
2023-05-24T12:15:55.853Z,24.80
2023-05-24T12:21:00.554Z,30.70
2023-05-24T12:26:04.313Z,21.30
2023-05-24T12:31:10.658Z,23.50
2023-05-24T12:36:14.962Z,25.20
2023-05-24T12:41:18.621Z,22.25
2023-05-24T12:46:23.932Z,32.13
2023-05-24T12:51:27.635Z,24.43
2023-05-24T12:56:31.352Z,24.30
2023-05-24T13:01:37.851Z,23.58
2023-05-24T13:06:41.663Z,24.60
2023-05-24T13:11:45.381Z,27.35
2023-05-24T13:16:51.134Z,23.25
2023-05-24T13:21:54.889Z,32.15
2023-05-24T13:26:58.792Z,41.25
2023-05-24T13:32:04.151Z,34.10
2023-05-24T13:37:07.977Z,28.70
2023-05-24T13:42:11.825Z,27.13
2023-05-24T13:47:27.297Z,23.65
2023-05-24T13:52:39.478Z,35.92
2023-05-24T13:57:51.556Z,36.13
2023-05-24T14:02:57.599Z,28.95
2023-05-24T14:08:01.343Z,30.40
2023-05-24T14:18:16.514Z,33.92
2023-05-24T14:23:20.200Z,26.90
2023-05-24T14:28:23.892Z,29.85
2023-05-24T14:33:29.210Z,31.42
2023-05-24T14:38:32.946Z,28.13
2023-05-24T14:43:36.604Z,28.45
2023-05-24T14:48:41.926Z,26.90
2023-05-24T14:53:45.631Z,24.87
2023-05-24T14:58:49.282Z,22.55
2023-05-24T15:03:54.750Z,31.65
2023-05-24T15:08:58.561Z,26.50
2023-05-24T15:14:02.241Z,31.83
2023-05-24T15:19:07.585Z,29.08
2023-05-24T15:24:11.262Z,25.53
2023-05-24T15:29:14.970Z,34.35
2023-05-24T15:34:21.498Z,32.33
2023-05-24T15:39:27.226Z,24.73
2023-05-24T15:44:30.914Z,23.65
2023-05-24T15:49:37.223Z,29.05
2023-05-24T15:54:40.885Z,24.40
2023-05-24T15:59:44.604Z,25.95
2023-05-24T16:04:51.658Z,26.30
2023-05-24T16:09:55.438Z,19.42
2023-05-24T16:15:00.378Z,22.75
2023-05-24T16:20:06.371Z,19.10
2023-05-24T16:30:13.920Z,21.50
2023-05-24T16:35:19.298Z,19.77
2023-05-24T16:40:23.175Z,20.00
2023-05-24T16:45:26.859Z,19.63
2023-05-24T16:50:32.176Z,24.88
2023-05-24T16:55:35.820Z,20.87
2023-05-24T17:00:39.477Z,20.30
2023-05-24T17:05:44.796Z,20.27
2023-05-24T17:10:48.589Z,17.57
2023-05-24T17:15:52.450Z,21.85
2023-05-24T17:20:58.697Z,21.08
2023-05-24T17:26:02.990Z,23.02
2023-05-24T17:31:09.242Z,23.08
2023-05-24T17:36:14.608Z,19.85
2023-05-24T17:41:18.320Z,28.33
2023-05-24T17:46:22.004Z,26.67
2023-05-24T17:51:27.388Z,24.88
2023-05-24T17:56:31.054Z,24.20
2023-05-24T18:01:35.197Z,28.60
2023-05-24T18:06:40.556Z,28.35
2023-05-24T18:11:44.215Z,26.27
2023-05-24T18:16:47.928Z,28.52
2023-05-24T18:21:54.102Z,32.20
2023-05-24T18:26:57.733Z,26.38
2023-05-24T18:32:01.424Z,25.60
2023-05-24T18:37:06.946Z,27.42
2023-05-24T18:42:10.592Z,27.70
2023-05-24T18:47:14.255Z,22.77
2023-05-24T18:52:20.488Z,26.35
2023-05-24T18:57:24.195Z,24.17
2023-05-24T19:02:27.984Z,26.20
2023-05-24T19:07:35.090Z,26.00
2023-05-24T19:12:38.811Z,22.40
2023-05-24T19:17:42.509Z,22.38
2023-05-24T19:22:48.006Z,23.83
2023-05-24T19:32:58.088Z,21.88
2023-05-24T19:38:03.473Z,20.13
2023-05-24T19:43:07.137Z,22.40
2023-05-24T19:48:10.761Z,17.65
2023-05-24T19:53:16.603Z,29.25
2023-05-24T19:58:20.255Z,20.95
2023-05-24T20:03:23.966Z,21.65
2023-05-24T20:08:29.390Z,17.10
2023-05-24T20:13:33.053Z,16.60
2023-05-24T20:18:36.731Z,16.85
2023-05-24T20:23:43.001Z,18.27
2023-05-24T20:28:46.648Z,20.13
2023-05-24T20:33:51.079Z,21.40
2023-05-24T20:38:56.451Z,19.58
2023-05-24T20:44:00.120Z,18.20
2023-05-24T20:49:03.783Z,16.17
2023-05-24T20:54:09.173Z,16.30
2023-05-24T20:59:12.888Z,18.10
2023-05-24T21:04:16.557Z,18.25
2023-05-24T21:09:21.887Z,17.08
2023-05-24T21:14:25.540Z,17.05
2023-05-24T21:19:29.239Z,18.13
2023-05-24T21:24:34.572Z,16.55
2023-05-24T21:29:38.247Z,16.33
2023-05-24T21:34:42.068Z,20.70
2023-05-24T21:39:48.353Z,16.48
2023-05-24T21:44:52.056Z,16.77
2023-05-24T21:49:55.745Z,16.60
2023-05-24T22:00:32.143Z,15.63
2023-05-24T22:05:35.807Z,16.73
2023-05-24T22:10:41.151Z,14.93
2023-05-24T22:15:45.094Z,13.02
2023-05-24T22:20:50.455Z,11.15
2023-05-24T22:25:55.742Z,14.93
2023-05-24T22:30:59.413Z,14.95
2023-05-24T22:36:03.032Z,11.50
2023-05-24T22:41:08.422Z,14.70
2023-05-24T22:51:15.034Z,13.38
2023-05-24T22:56:20.503Z,12.48
2023-05-24T23:06:27.245Z,12.90
2023-05-24T23:11:32.589Z,10.88
2023-05-24T23:16:36.565Z,9.98
2023-05-24T23:21:40.297Z,10.32
2023-05-24T23:26:45.614Z,10.00
2023-05-24T23:31:49.331Z,12.60
2023-05-24T23:36:53.204Z,11.38
2023-05-24T23:41:58.597Z,12.57
2023-05-24T23:47:03.547Z,12.10
2023-05-24T23:52:08.184Z,12.75
2023-05-24T23:57:13.982Z,12.95
